createdAt,value
2022-10-10T00:04:14.073Z,8.67
2022-10-10T00:09:16.912Z,8.57
2022-10-10T00:14:19.774Z,8.50
2022-10-10T00:19:22.663Z,8.46
2022-10-10T00:24:25.403Z,8.41
2022-10-10T00:29:28.200Z,8.36
2022-10-10T00:34:33.070Z,8.31
2022-10-10T00:39:35.881Z,8.27
2022-10-10T00:44:40.567Z,8.16
2022-10-10T00:49:44.598Z,8.07
2022-10-10T00:54:47.429Z,7.96
2022-10-10T00:59:50.469Z,7.86
2022-10-10T01:04:53.235Z,7.78
2022-10-10T01:09:58.826Z,7.75
2022-10-10T01:15:10.496Z,7.75
2022-10-10T01:20:13.295Z,7.76
2022-10-10T01:25:38.004Z,7.74
2022-10-10T01:30:41.517Z,7.72
2022-10-10T01:36:03.949Z,7.60
2022-10-10T01:41:23.977Z,7.46
2022-10-10T01:46:27.471Z,7.41
2022-10-10T01:51:42.246Z,7.33
2022-10-10T01:56:54.059Z,7.27
2022-10-10T02:02:06.173Z,7.17
2022-10-10T02:07:21.831Z,7.11
2022-10-10T02:12:26.631Z,7.02
2022-10-10T02:17:30.563Z,6.95
2022-10-10T02:22:34.206Z,6.88
2022-10-10T02:27:58.553Z,6.78
2022-10-10T02:33:04.526Z,6.76
2022-10-10T02:38:09.300Z,6.68
2022-10-10T02:43:12.947Z,6.66
2022-10-10T02:48:15.776Z,6.60
2022-10-10T02:53:18.517Z,6.57
2022-10-10T02:58:21.476Z,6.53
2022-10-10T03:03:25.647Z,6.51
2022-10-10T03:08:27.655Z,6.48
2022-10-10T03:13:30.959Z,6.44
2022-10-10T03:18:33.768Z,6.35
2022-10-10T03:23:36.588Z,6.29
2022-10-10T03:28:39.481Z,6.21
2022-10-10T03:33:42.307Z,6.13
2022-10-10T03:38:45.046Z,6.09
2022-10-10T03:43:47.898Z,6.08
2022-10-10T03:48:50.862Z,6.03
2022-10-10T03:53:54.671Z,5.94
2022-10-10T03:59:00.697Z,5.91
2022-10-10T04:04:05.158Z,5.85
2022-10-10T04:09:08.041Z,5.81
2022-10-10T04:14:11.306Z,5.80
2022-10-10T04:19:14.875Z,5.80
2022-10-10T04:24:17.640Z,5.80
2022-10-10T04:29:20.735Z,5.76
2022-10-10T04:34:23.599Z,5.71
2022-10-10T04:39:26.576Z,5.67
2022-10-10T04:44:29.504Z,5.63
2022-10-10T04:49:32.371Z,5.60
2022-10-10T04:54:35.414Z,5.57
2022-10-10T04:59:38.247Z,5.57
2022-10-10T05:04:41.065Z,5.53
2022-10-10T05:09:43.631Z,5.54
2022-10-10T05:14:48.264Z,5.53
2022-10-10T05:19:51.722Z,5.53
2022-10-10T05:24:54.557Z,5.55
2022-10-10T05:29:57.376Z,5.59
2022-10-10T05:35:00.518Z,5.69
2022-10-10T05:40:03.709Z,5.77
2022-10-10T05:45:07.170Z,5.87
2022-10-10T05:50:22.845Z,5.98
2022-10-10T05:55:25.855Z,6.12
2022-10-10T06:00:28.736Z,6.28
2022-10-10T06:05:31.638Z,6.46
2022-10-10T06:10:35.851Z,6.68
2022-10-10T06:15:38.750Z,6.93
2022-10-10T06:20:41.568Z,7.19
2022-10-10T06:25:44.323Z,7.46
2022-10-10T06:30:48.772Z,7.73
2022-10-10T06:35:51.752Z,8.01
2022-10-10T06:40:58.475Z,8.29
2022-10-10T06:46:03.717Z,8.56
2022-10-10T06:51:14.429Z,8.82
2022-10-10T06:56:26.377Z,9.06
2022-10-10T07:01:30.259Z,9.26
2022-10-10T07:06:34.952Z,9.48
2022-10-10T07:11:38.081Z,9.72
2022-10-10T07:16:41.627Z,10.00
2022-10-10T07:21:44.480Z,10.25
2022-10-10T07:26:47.066Z,10.53
2022-10-10T07:31:50.263Z,10.78
2022-10-10T07:36:53.201Z,11.09
2022-10-10T07:41:55.988Z,11.42
2022-10-10T07:46:58.847Z,11.75
2022-10-10T07:52:01.936Z,11.90
2022-10-10T07:57:04.718Z,11.95
2022-10-10T08:02:07.603Z,11.98
2022-10-10T08:07:10.584Z,12.08
2022-10-10T08:12:13.364Z,12.12
2022-10-10T08:17:16.311Z,12.35
2022-10-10T08:22:19.130Z,12.52
2022-10-10T08:27:22.051Z,12.62
2022-10-10T08:32:25.637Z,12.68
2022-10-10T08:37:32.706Z,12.79
2022-10-10T08:42:53.398Z,12.92
2022-10-10T08:48:04.006Z,13.01
2022-10-10T08:53:12.189Z,13.09
2022-10-10T08:58:21.034Z,13.33
2022-10-10T09:03:26.801Z,13.57
2022-10-10T09:08:41.771Z,13.73
2022-10-10T09:14:02.763Z,13.95
2022-10-10T09:19:08.914Z,14.16
2022-10-10T09:24:26.122Z,14.23
2022-10-10T09:29:32.249Z,14.27
2022-10-10T09:35:27.951Z,14.54
2022-10-10T09:40:34.623Z,14.88
2022-10-10T09:45:41.844Z,15.06
2022-10-10T09:50:45.018Z,15.29
2022-10-10T09:55:48.343Z,15.49
2022-10-10T10:00:51.279Z,15.68
2022-10-10T10:06:01.389Z,16.00
2022-10-10T10:11:04.990Z,16.05
2022-10-10T10:16:14.273Z,16.23
2022-10-10T10:21:20.028Z,16.40
2022-10-10T10:26:27.443Z,16.51
2022-10-10T10:31:42.559Z,16.67
2022-10-10T10:36:58.089Z,16.68
2022-10-10T10:42:22.798Z,17.06
2022-10-10T10:47:28.564Z,17.57
2022-10-10T10:52:57.764Z,18.51
2022-10-10T10:59:05.746Z,19.70
2022-10-10T11:05:16.475Z,20.80
2022-10-10T11:09:49.718Z,21.75
2022-10-10T11:15:15.325Z,21.90
2022-10-10T11:20:21.646Z,21.98
2022-10-10T11:25:36.653Z,22.27
2022-10-10T11:30:51.549Z,22.95
2022-10-10T11:36:07.056Z,23.34
2022-10-10T11:41:15.964Z,23.57
2022-10-10T11:46:26.011Z,23.59
2022-10-10T11:51:39.435Z,22.89
2022-10-10T11:56:45.709Z,22.77
2022-10-10T12:01:52.105Z,22.36
2022-10-10T12:07:01.053Z,21.66
2022-10-10T12:12:12.007Z,20.80
2022-10-10T12:17:29.721Z,20.04
2022-10-10T12:22:32.608Z,19.35
2022-10-10T12:27:44.656Z,18.88
2022-10-10T12:32:50.391Z,18.55
2022-10-10T12:38:15.748Z,18.34
2022-10-10T12:43:23.437Z,18.15
2022-10-10T12:48:26.306Z,18.04
2022-10-10T12:53:33.787Z,17.92
2022-10-10T12:58:41.069Z,17.98
2022-10-10T13:03:48.657Z,17.91
2022-10-10T13:08:53.693Z,17.84
2022-10-10T13:13:57.289Z,17.78
2022-10-10T13:19:00.500Z,17.78
2022-10-10T13:24:06.056Z,17.81
2022-10-10T13:29:36.654Z,17.81
2022-10-10T13:34:43.789Z,17.90
2022-10-10T13:39:47.956Z,17.95
2022-10-10T13:44:53.642Z,17.96
2022-10-10T13:49:57.278Z,17.92
2022-10-10T13:55:26.170Z,17.86
2022-10-10T14:00:32.702Z,17.91
2022-10-10T14:05:36.031Z,17.82
2022-10-10T14:10:38.812Z,17.79
2022-10-10T14:15:41.659Z,17.77
2022-10-10T14:20:45.773Z,17.65
2022-10-10T14:25:49.267Z,17.55
2022-10-10T14:30:52.501Z,17.40
2022-10-10T14:35:56.372Z,17.27
2022-10-10T14:40:59.394Z,17.13
2022-10-10T14:46:02.495Z,17.05
2022-10-10T14:51:34.435Z,16.97
2022-10-10T14:57:06.824Z,16.86
2022-10-10T15:01:52.228Z,16.77
2022-10-10T15:07:12.507Z,16.65
2022-10-10T15:12:16.431Z,16.54
2022-10-10T15:17:19.280Z,16.45
2022-10-10T15:22:22.151Z,16.33
2022-10-10T15:27:28.005Z,16.19
2022-10-10T15:32:30.697Z,16.05
2022-10-10T15:37:33.481Z,15.90
2022-10-10T15:42:36.361Z,15.70
2022-10-10T15:47:45.514Z,15.52
2022-10-10T15:52:49.505Z,15.30
2022-10-10T15:57:52.164Z,15.07
2022-10-10T16:02:54.981Z,14.85
2022-10-10T16:07:57.827Z,14.61
2022-10-10T16:13:00.641Z,14.42
2022-10-10T16:18:03.592Z,14.24
2022-10-10T16:23:06.391Z,14.04
2022-10-10T16:28:09.123Z,13.88
2022-10-10T16:33:12.159Z,13.73
2022-10-10T16:38:15.022Z,13.60
2022-10-10T16:43:17.992Z,13.53
2022-10-10T16:48:21.543Z,13.42
2022-10-10T16:53:24.321Z,13.30
2022-10-10T16:58:27.763Z,13.19
2022-10-10T17:03:32.021Z,13.10
2022-10-10T17:08:35.125Z,12.97
2022-10-10T17:13:38.639Z,12.86
2022-10-10T17:18:41.516Z,12.76
2022-10-10T17:23:44.825Z,12.69
2022-10-10T17:28:53.945Z,12.62
2022-10-10T17:33:57.571Z,12.58
2022-10-10T17:39:00.480Z,12.50
2022-10-10T17:44:05.284Z,12.43
2022-10-10T17:49:12.406Z,12.38
2022-10-10T17:54:15.271Z,12.33
2022-10-10T17:59:18.090Z,12.28
2022-10-10T18:04:20.894Z,12.23
2022-10-10T18:09:23.737Z,12.18
2022-10-10T18:14:26.538Z,12.08
2022-10-10T18:19:29.413Z,11.98
2022-10-10T18:24:32.307Z,11.82
2022-10-10T18:29:35.374Z,11.76
2022-10-10T18:34:38.335Z,11.68
2022-10-10T18:39:42.315Z,11.61
2022-10-10T18:44:45.511Z,11.49
2022-10-10T18:49:48.737Z,11.41
2022-10-10T18:54:51.599Z,11.30
2022-10-10T18:59:55.208Z,11.22
2022-10-10T19:04:58.194Z,11.11
2022-10-10T19:10:00.995Z,11.01
2022-10-10T19:15:04.011Z,10.95
2022-10-10T19:20:07.309Z,10.93
2022-10-10T19:25:10.268Z,10.88
2022-10-10T19:30:13.829Z,10.76
2022-10-10T19:35:16.646Z,10.74
2022-10-10T19:40:19.552Z,10.66
2022-10-10T19:45:22.540Z,10.56
2022-10-10T19:50:25.246Z,10.52
2022-10-10T19:55:28.038Z,10.48
2022-10-10T20:00:31.245Z,10.42
2022-10-10T20:05:33.803Z,10.40
2022-10-10T20:10:40.214Z,10.31
2022-10-10T20:15:44.203Z,10.30
2022-10-10T20:20:50.420Z,10.27
2022-10-10T20:25:53.311Z,10.29
2022-10-10T20:30:56.315Z,10.29
2022-10-10T20:36:01.876Z,10.26
2022-10-10T20:41:06.994Z,10.26
2022-10-10T20:46:11.607Z,10.28
2022-10-10T20:51:14.434Z,10.33
2022-10-10T20:56:18.449Z,10.35
2022-10-10T21:01:23.904Z,10.39
2022-10-10T21:06:29.207Z,10.41
2022-10-10T21:11:32.632Z,10.46
2022-10-10T21:16:38.226Z,10.47
2022-10-10T21:21:41.008Z,10.47
2022-10-10T21:26:45.524Z,10.46
2022-10-10T21:31:48.986Z,10.44
2022-10-10T21:36:51.901Z,10.41
2022-10-10T21:41:54.739Z,10.38
2022-10-10T21:46:57.698Z,10.30
2022-10-10T21:52:00.474Z,10.24
2022-10-10T21:57:03.418Z,10.16
2022-10-10T22:02:09.246Z,10.14
2022-10-10T22:07:12.136Z,10.09
2022-10-10T22:12:16.584Z,10.02
2022-10-10T22:17:19.424Z,9.99
2022-10-10T22:22:22.206Z,9.97
2022-10-10T22:27:25.040Z,9.99
2022-10-10T22:32:27.924Z,10.01
2022-10-10T22:37:30.774Z,10.00
2022-10-10T22:42:33.550Z,9.99
2022-10-10T22:47:36.420Z,9.99
2022-10-10T22:52:39.367Z,10.05
2022-10-10T22:57:42.160Z,10.09
2022-10-10T23:02:45.039Z,10.12
2022-10-10T23:07:47.851Z,10.14
2022-10-10T23:12:50.631Z,10.16
2022-10-10T23:17:53.499Z,10.18
2022-10-10T23:22:56.445Z,10.21
2022-10-10T23:27:59.249Z,10.23
2022-10-10T23:33:02.627Z,10.25
2022-10-10T23:38:05.758Z,10.27
2022-10-10T23:43:10.670Z,10.29
2022-10-10T23:48:13.763Z,10.31
2022-10-10T23:53:16.554Z,10.33
2022-10-10T23:58:19.426Z,10.33
